createdAt,value
2023-03-26T00:01:02.071Z,96190.44
2023-03-26T00:03:30.048Z,96138.53
2023-03-26T00:06:04.162Z,96131.00
2023-03-26T00:08:31.016Z,96199.13
2023-03-26T00:10:58.390Z,96199.91
2023-03-26T00:13:26.758Z,96203.09
2023-03-26T00:15:53.879Z,96149.22
2023-03-26T00:18:22.395Z,96203.09
2023-03-26T00:20:48.946Z,96201.50
2023-03-26T00:23:15.609Z,96203.88
2023-03-26T00:25:43.403Z,96195.16
2023-03-26T00:28:10.636Z,96199.50
2023-03-26T00:30:37.451Z,96197.50
2023-03-26T00:33:04.260Z,96194.75
2023-03-26T00:35:30.865Z,96195.47
2023-03-26T00:37:58.435Z,96132.50
2023-03-26T00:40:25.299Z,96214.50
2023-03-26T00:42:51.899Z,96144.75
2023-03-26T00:45:21.370Z,96203.84
2023-03-26T00:47:48.346Z,96207.81
2023-03-26T00:50:18.120Z,96165.03
2023-03-26T00:52:46.295Z,96160.25
2023-03-26T00:55:13.508Z,96155.53
2023-03-26T00:57:40.691Z,96166.63
2023-03-26T01:00:16.999Z,96198.28
2023-03-26T01:02:45.279Z,96235.53
2023-03-26T01:05:43.130Z,96247.41
2023-03-26T01:08:43.288Z,96235.53
2023-03-26T01:11:14.715Z,96222.06
2023-03-26T01:13:50.735Z,96222.09
2023-03-26T01:16:47.401Z,96228.78
2023-03-26T01:19:21.180Z,96191.91
2023-03-26T01:21:48.022Z,96182.38
2023-03-26T01:24:14.646Z,96215.69
2023-03-26T01:26:41.158Z,96238.66
2023-03-26T01:29:19.513Z,96241.84
2023-03-26T01:32:01.386Z,96234.72
2023-03-26T01:34:49.901Z,96226.00
2023-03-26T01:37:22.340Z,96214.13
2023-03-26T01:39:57.258Z,96143.56
2023-03-26T01:42:37.602Z,96188.75
2023-03-26T01:45:16.661Z,96173.28
2023-03-26T01:47:44.271Z,96180.00
2023-03-26T01:50:11.158Z,96165.72
2023-03-26T01:52:38.535Z,96244.19
2023-03-26T01:55:06.656Z,96218.09
2023-03-26T01:58:03.858Z,96237.91
2023-03-26T02:00:39.458Z,96152.31
2023-03-26T02:03:51.545Z,96229.97
2023-03-26T02:06:30.809Z,96237.69
2023-03-26T02:09:00.952Z,96233.66
2023-03-26T02:11:35.441Z,96251.94
2023-03-26T02:14:05.242Z,96235.38
2023-03-26T02:16:31.936Z,96232.63
2023-03-26T02:18:59.359Z,96210.47
2023-03-26T02:21:27.977Z,96272.72
2023-03-26T02:24:03.457Z,96276.69
2023-03-26T02:26:32.470Z,96283.41
2023-03-26T02:28:59.851Z,96282.25
2023-03-26T02:31:26.714Z,96233.66
2023-03-26T02:33:55.618Z,96230.91
2023-03-26T02:36:27.497Z,96275.16
2023-03-26T02:38:55.773Z,96271.75
2023-03-26T02:41:22.522Z,96277.88
2023-03-26T02:43:49.350Z,96234.00
2023-03-26T02:46:16.146Z,96288.06
2023-03-26T02:48:44.011Z,96286.66
2023-03-26T02:51:10.855Z,96236.75
2023-03-26T02:53:39.560Z,96268.97
2023-03-26T02:56:06.813Z,96278.84
2023-03-26T02:58:33.490Z,96266.22
2023-03-26T03:01:03.297Z,96264.59
2023-03-26T03:03:30.593Z,96201.13
2023-03-26T03:05:57.887Z,96272.06
2023-03-26T03:08:28.249Z,96082.50
2023-03-26T03:11:16.596Z,96272.84
2023-03-26T03:13:44.696Z,96262.91
2023-03-26T03:16:11.369Z,96268.28
2023-03-26T03:18:38.056Z,96180.25
2023-03-26T03:21:06.199Z,96197.72
2023-03-26T03:23:32.846Z,96250.19
2023-03-26T03:25:59.521Z,96197.69
2023-03-26T03:28:26.655Z,96220.66
2023-03-26T03:30:53.398Z,96255.59
2023-03-26T03:33:20.943Z,96188.09
2023-03-26T03:35:49.691Z,96257.91
2023-03-26T03:38:19.483Z,96262.66
2023-03-26T03:40:46.437Z,96260.25
2023-03-26T03:43:13.100Z,96237.25
2023-03-26T03:45:39.737Z,96268.94
2023-03-26T03:48:06.595Z,96260.97
2023-03-26T03:50:35.611Z,96256.09
2023-03-26T03:53:03.312Z,96272.81
2023-03-26T03:55:30.063Z,96270.44
2023-03-26T03:57:58.398Z,96246.69
2023-03-26T04:00:25.149Z,96276.84
2023-03-26T04:02:54.382Z,96274.09
2023-03-26T04:05:21.673Z,96284.69
2023-03-26T04:07:48.346Z,96281.50
2023-03-26T04:10:16.095Z,96290.31
2023-03-26T04:12:42.770Z,96281.63
2023-03-26T04:15:09.741Z,96286.38
2023-03-26T04:17:42.786Z,96293.47
2023-03-26T04:20:15.972Z,96294.22
2023-03-26T04:22:44.194Z,96293.38
2023-03-26T04:25:12.622Z,96289.25
2023-03-26T04:27:41.762Z,96288.16
2023-03-26T04:30:12.628Z,96278.25
2023-03-26T04:32:40.550Z,96286.06
2023-03-26T04:35:07.511Z,96270.56
2023-03-26T04:37:40.796Z,96282.84
2023-03-26T04:40:15.560Z,96295.09
2023-03-26T04:42:46.264Z,96297.09
2023-03-26T04:45:22.486Z,96300.31
2023-03-26T04:47:50.466Z,96253.97
2023-03-26T04:50:17.370Z,96315.16
2023-03-26T04:52:45.340Z,96261.06
2023-03-26T04:55:24.943Z,96178.06
2023-03-26T04:57:57.267Z,96324.13
2023-03-26T05:00:24.835Z,96251.56
2023-03-26T05:02:54.199Z,96292.66
2023-03-26T05:05:20.901Z,96325.28
2023-03-26T05:07:47.581Z,96344.41
2023-03-26T05:10:16.055Z,96328.66
2023-03-26T05:12:43.207Z,96327.09
2023-03-26T05:15:11.651Z,96321.59
2023-03-26T05:17:41.619Z,96273.19
2023-03-26T05:20:21.639Z,96350.31
2023-03-26T05:22:51.245Z,96359.09
2023-03-26T05:25:18.623Z,96360.69
2023-03-26T05:27:45.644Z,96370.66
2023-03-26T05:30:17.900Z,96369.47
2023-03-26T05:32:44.691Z,96376.63
2023-03-26T05:35:12.612Z,96333.91
2023-03-26T05:37:39.194Z,96253.00
2023-03-26T05:40:13.875Z,96362.47
2023-03-26T05:42:41.497Z,96378.34
2023-03-26T05:45:11.221Z,96367.59
2023-03-26T05:47:37.896Z,96328.34
2023-03-26T05:50:06.199Z,96360.06
2023-03-26T05:52:32.941Z,96304.13
2023-03-26T05:54:59.496Z,96361.97
2023-03-26T05:57:28.669Z,96322.38
2023-03-26T05:59:56.304Z,96381.38
2023-03-26T06:02:23.740Z,96359.59
2023-03-26T06:04:51.063Z,96340.09
2023-03-26T06:07:18.616Z,96346.78
2023-03-26T06:09:45.739Z,96334.41
2023-03-26T06:12:12.502Z,96337.47
2023-03-26T06:14:39.356Z,96359.53
2023-03-26T06:17:05.941Z,96369.56
2023-03-26T06:19:32.546Z,96340.13
2023-03-26T06:21:59.229Z,96290.63
2023-03-26T06:24:26.091Z,96371.22
2023-03-26T06:26:52.820Z,96382.47
2023-03-26T06:29:20.202Z,96373.38
2023-03-26T06:31:47.063Z,96327.03
2023-03-26T06:34:13.728Z,96383.97
2023-03-26T06:36:40.428Z,96365.13
2023-03-26T06:39:07.682Z,96306.72
2023-03-26T06:41:35.853Z,96370.97
2023-03-26T06:44:02.664Z,96389.00
2023-03-26T06:46:29.325Z,96357.19
2023-03-26T06:48:56.169Z,96343.97
2023-03-26T06:51:22.757Z,96396.91
2023-03-26T06:53:49.314Z,96408.06
2023-03-26T06:56:15.972Z,96401.59
2023-03-26T06:58:42.558Z,96363.22
2023-03-26T07:01:09.248Z,96353.94
2023-03-26T07:03:35.930Z,96371.25
2023-03-26T07:06:02.630Z,96341.09
2023-03-26T07:08:30.880Z,96370.06
2023-03-26T07:10:57.699Z,96408.38
2023-03-26T07:13:24.643Z,96401.94
2023-03-26T07:15:51.209Z,96413.47
2023-03-26T07:18:17.780Z,96402.56
2023-03-26T07:20:45.579Z,96404.13
2023-03-26T07:23:13.821Z,96422.41
2023-03-26T07:25:41.192Z,96421.06
2023-03-26T07:28:25.742Z,96416.59
2023-03-26T07:31:04.175Z,96425.28
2023-03-26T07:34:09.788Z,96422.84
2023-03-26T07:36:56.458Z,96415.75
2023-03-26T07:39:44.529Z,96420.63
2023-03-26T07:42:13.787Z,96430.03
2023-03-26T07:44:49.372Z,96420.22
2023-03-26T07:47:25.675Z,96422.94
2023-03-26T07:49:54.571Z,96357.91
2023-03-26T07:52:22.014Z,96424.19
2023-03-26T07:54:48.824Z,96397.41
2023-03-26T07:57:20.404Z,96412.00
2023-03-26T07:59:58.438Z,96384.56
2023-03-26T08:02:37.081Z,96412.63
2023-03-26T08:05:32.989Z,96335.19
2023-03-26T08:08:32.108Z,96411.78
2023-03-26T08:11:40.377Z,96386.47
2023-03-26T08:14:37.494Z,96397.34
2023-03-26T08:17:14.701Z,96369.94
2023-03-26T08:19:54.241Z,96373.31
2023-03-26T08:22:27.399Z,96395.66
2023-03-26T08:25:18.905Z,96402.00
2023-03-26T08:28:02.085Z,96404.88
2023-03-26T08:30:28.884Z,96397.19
2023-03-26T08:33:02.359Z,96404.78
2023-03-26T08:35:28.868Z,96394.81
2023-03-26T08:37:55.856Z,96399.88
2023-03-26T08:40:40.511Z,96402.56
2023-03-26T08:43:22.215Z,96400.53
2023-03-26T08:45:57.765Z,96390.97
2023-03-26T08:49:01.924Z,96390.13
2023-03-26T08:51:43.819Z,96387.44
2023-03-26T08:54:48.599Z,96393.47
2023-03-26T08:57:26.457Z,96394.47
2023-03-26T09:00:33.947Z,96394.25
2023-03-26T09:03:25.524Z,96383.97
2023-03-26T09:06:22.255Z,96387.38
2023-03-26T09:09:27.386Z,96386.31
2023-03-26T09:12:28.219Z,96386.06
2023-03-26T09:15:03.722Z,96381.91
2023-03-26T09:17:47.212Z,96389.50
2023-03-26T09:20:38.577Z,96380.22
2023-03-26T09:23:36.490Z,96385.78
2023-03-26T09:26:18.468Z,96392.53
2023-03-26T09:29:12.790Z,96394.28
2023-03-26T09:31:42.296Z,96395.91
2023-03-26T09:34:18.593Z,96387.59
2023-03-26T09:36:57.302Z,96401.75
2023-03-26T09:39:36.595Z,96222.63
2023-03-26T09:42:23.625Z,96385.97
2023-03-26T09:45:05.026Z,96389.31
2023-03-26T09:47:31.844Z,96378.28
2023-03-26T09:50:22.828Z,96378.47
2023-03-26T09:53:04.416Z,96403.88
2023-03-26T09:55:50.120Z,96390.41
2023-03-26T09:58:42.263Z,96391.25
2023-03-26T10:01:11.077Z,96390.25
2023-03-26T10:03:43.813Z,96368.44
2023-03-26T10:06:37.288Z,96333.06
2023-03-26T10:09:38.458Z,96386.94
2023-03-26T10:12:14.282Z,96371.34
2023-03-26T10:15:11.204Z,96364.84
2023-03-26T10:17:57.188Z,96374.03
2023-03-26T10:20:37.666Z,96361.41
2023-03-26T10:23:08.996Z,96375.22
2023-03-26T10:25:40.951Z,96368.00
2023-03-26T10:28:13.650Z,96359.25
2023-03-26T10:31:07.824Z,96368.91
2023-03-26T10:33:56.290Z,96358.09
2023-03-26T10:36:41.333Z,96339.81
2023-03-26T10:39:36.918Z,96325.44
2023-03-26T10:42:28.739Z,96341.69
2023-03-26T10:45:13.197Z,96338.63
2023-03-26T10:47:39.772Z,96327.56
2023-03-26T10:50:22.723Z,96319.84
2023-03-26T10:53:03.666Z,96277.88
2023-03-26T10:55:46.725Z,96300.22
2023-03-26T10:58:27.743Z,96319.84
2023-03-26T11:01:06.286Z,96314.41
2023-03-26T11:03:43.951Z,96331.59
2023-03-26T11:06:38.842Z,96312.84
2023-03-26T11:09:30.361Z,96304.59
2023-03-26T11:12:25.449Z,96335.09
2023-03-26T11:15:13.589Z,96322.31
2023-03-26T11:17:46.331Z,96304.53
2023-03-26T11:20:43.558Z,96302.25
2023-03-26T11:23:38.102Z,96303.44
2023-03-26T11:26:18.034Z,96305.13
2023-03-26T11:29:03.674Z,96318.94
2023-03-26T11:32:02.980Z,96307.94
2023-03-26T11:34:48.208Z,96295.38
2023-03-26T11:37:29.780Z,96315.72
2023-03-26T11:39:58.701Z,96319.16
2023-03-26T11:42:25.788Z,96264.03
2023-03-26T11:45:16.899Z,96293.09
2023-03-26T11:47:55.687Z,96277.66
2023-03-26T11:50:27.609Z,96301.00
2023-03-26T11:53:03.249Z,96290.78
2023-03-26T11:55:31.487Z,96259.13
2023-03-26T11:58:00.759Z,96242.13
2023-03-26T12:00:28.796Z,96291.13
2023-03-26T12:03:00.466Z,96295.16
2023-03-26T12:05:33.604Z,96291.72
2023-03-26T12:08:03.691Z,96277.34
2023-03-26T12:10:43.009Z,96233.72
2023-03-26T12:13:33.631Z,96275.06
2023-03-26T12:16:14.153Z,96243.25
2023-03-26T12:18:43.946Z,96286.06
2023-03-26T12:21:13.762Z,96280.66
2023-03-26T12:23:44.953Z,96283.81
2023-03-26T12:26:16.617Z,96274.59
2023-03-26T12:28:49.325Z,96251.25
2023-03-26T12:31:20.576Z,96268.19
2023-03-26T12:34:17.229Z,96276.50
2023-03-26T12:36:53.425Z,96272.81
2023-03-26T12:40:10.095Z,96267.66
2023-03-26T12:44:44.261Z,96255.50
2023-03-26T12:45:16.194Z,96168.59
2023-03-26T12:47:58.657Z,96260.59
2023-03-26T12:50:39.903Z,96264.06
2023-03-26T12:53:15.051Z,96217.72
2023-03-26T12:56:40.347Z,96237.41
2023-03-26T12:59:19.032Z,96264.94
2023-03-26T13:02:14.857Z,96210.19
2023-03-26T13:05:06.256Z,96255.38
2023-03-26T13:07:57.490Z,96253.72
2023-03-26T13:10:36.158Z,96249.63
2023-03-26T13:13:26.345Z,96252.34
2023-03-26T13:15:57.331Z,96213.69
2023-03-26T13:19:02.135Z,96237.75
2023-03-26T13:21:38.088Z,96233.25
2023-03-26T13:24:07.718Z,96242.00
2023-03-26T13:26:53.033Z,96226.72
2023-03-26T13:29:44.279Z,96235.34
2023-03-26T13:33:04.789Z,96241.81
2023-03-26T13:35:46.936Z,96235.28
2023-03-26T13:38:44.410Z,96174.78
2023-03-26T13:42:01.349Z,96239.63
2023-03-26T13:44:40.101Z,96246.19
2023-03-26T13:47:09.970Z,96211.19
2023-03-26T13:49:54.496Z,96229.63
2023-03-26T13:52:27.386Z,96229.69
2023-03-26T13:55:29.497Z,96228.53
2023-03-26T13:58:16.541Z,96229.22
2023-03-26T14:01:07.206Z,96231.19
2023-03-26T14:03:46.462Z,96234.75
2023-03-26T14:06:29.048Z,96224.72
2023-03-26T14:09:06.625Z,96218.28
2023-03-26T14:11:48.781Z,96237.72
2023-03-26T14:14:23.958Z,96223.75
2023-03-26T14:16:58.439Z,96210.56
2023-03-26T14:19:40.366Z,96213.84
2023-03-26T14:22:21.332Z,96217.31
2023-03-26T14:24:58.944Z,96156.78
2023-03-26T14:27:49.770Z,96205.84
2023-03-26T14:30:32.110Z,96214.00
2023-03-26T14:33:28.115Z,96217.38
2023-03-26T14:36:08.356Z,96206.72
2023-03-26T14:39:06.557Z,96223.53
2023-03-26T14:41:53.378Z,96221.03
2023-03-26T14:44:54.585Z,96225.00
2023-03-26T14:47:22.508Z,96208.75
2023-03-26T14:50:13.992Z,96207.94
2023-03-26T14:53:01.191Z,96213.34
2023-03-26T14:56:07.102Z,96219.44
2023-03-26T14:58:51.527Z,96213.78
2023-03-26T15:01:43.308Z,96170.63
2023-03-26T15:04:48.522Z,96209.22
2023-03-26T15:07:46.108Z,96209.41
2023-03-26T15:10:36.961Z,96205.03
2023-03-26T15:13:31.279Z,96206.44
2023-03-26T15:16:22.382Z,96217.34
2023-03-26T15:19:10.479Z,96203.13
2023-03-26T15:21:40.578Z,96208.94
2023-03-26T15:24:13.017Z,96207.72
2023-03-26T15:27:16.702Z,96214.91
2023-03-26T15:30:01.988Z,96214.03
2023-03-26T15:32:58.233Z,96211.91
2023-03-26T15:35:57.528Z,96217.19
2023-03-26T15:39:14.829Z,96215.84
2023-03-26T15:42:18.940Z,96217.69
2023-03-26T15:44:54.394Z,96218.91
2023-03-26T15:47:36.475Z,96220.22
2023-03-26T15:50:31.198Z,96228.31
2023-03-26T15:53:12.984Z,96222.88
2023-03-26T15:56:19.254Z,96230.72
2023-03-26T15:59:05.358Z,96225.78
2023-03-26T16:02:02.888Z,96226.50
2023-03-26T16:04:50.295Z,96228.81
2023-03-26T16:07:43.994Z,96212.88
2023-03-26T16:10:48.653Z,96233.53
2023-03-26T16:13:40.944Z,96233.69
2023-03-26T16:16:17.098Z,96238.06
2023-03-26T16:18:46.585Z,96240.19
2023-03-26T16:21:31.574Z,96242.13
2023-03-26T16:24:08.477Z,96238.38
2023-03-26T16:26:38.101Z,96238.72
2023-03-26T16:29:14.337Z,96231.81
2023-03-26T16:32:28.595Z,96239.59
2023-03-26T16:35:15.134Z,96242.03
2023-03-26T16:37:50.788Z,96251.69
2023-03-26T16:40:17.502Z,96250.16
2023-03-26T16:42:56.424Z,96249.53
2023-03-26T16:45:38.291Z,96251.56
2023-03-26T16:48:26.254Z,96251.69
2023-03-26T16:51:10.310Z,96244.81
2023-03-26T16:53:49.578Z,96252.09
2023-03-26T16:56:54.898Z,96220.97
2023-03-26T17:00:07.872Z,96260.56
2023-03-26T17:02:53.468Z,96267.63
2023-03-26T17:05:42.880Z,96268.97
2023-03-26T17:08:36.058Z,96276.75
2023-03-26T17:11:32.876Z,96280.41
2023-03-26T17:14:17.648Z,96277.31
2023-03-26T17:16:49.379Z,96284.69
2023-03-26T17:19:25.323Z,96299.84
2023-03-26T17:21:58.511Z,96297.91
2023-03-26T17:24:31.214Z,96301.56
2023-03-26T17:27:19.746Z,96252.53
2023-03-26T17:30:03.624Z,96312.00
2023-03-26T17:32:48.917Z,96318.53
2023-03-26T17:35:15.762Z,96316.63
2023-03-26T17:37:45.725Z,96315.47
2023-03-26T17:40:47.909Z,96324.97
2023-03-26T17:43:37.510Z,96326.59
2023-03-26T17:46:20.913Z,96285.06
2023-03-26T17:48:55.024Z,96236.75
2023-03-26T17:51:40.410Z,96323.56
2023-03-26T17:54:14.814Z,96332.28
2023-03-26T17:56:42.068Z,96328.34
2023-03-26T17:59:23.203Z,96313.28
2023-03-26T18:01:55.910Z,96324.41
2023-03-26T18:04:45.099Z,96258.19
2023-03-26T18:07:15.566Z,96332.34
2023-03-26T18:09:58.922Z,96343.44
2023-03-26T18:12:56.182Z,96337.06
2023-03-26T18:15:30.621Z,96343.72
2023-03-26T18:18:10.725Z,96348.09
2023-03-26T18:20:38.553Z,96336.16
2023-03-26T18:23:21.039Z,96348.47
2023-03-26T18:25:56.983Z,96351.56
2023-03-26T18:28:41.344Z,96359.53
2023-03-26T18:31:28.042Z,96362.31
2023-03-26T18:33:59.232Z,96297.44
2023-03-26T18:36:28.865Z,96352.59
2023-03-26T18:39:04.397Z,96360.91
2023-03-26T18:41:41.808Z,96351.44
2023-03-26T18:44:16.020Z,96345.16
2023-03-26T18:46:43.770Z,96344.38
2023-03-26T18:49:15.987Z,96338.81
2023-03-26T18:51:56.094Z,96319.41
2023-03-26T18:54:25.214Z,96280.84
2023-03-26T18:56:52.853Z,96333.59
2023-03-26T18:59:35.354Z,96328.06
2023-03-26T19:02:11.130Z,96307.44
2023-03-26T19:04:38.588Z,96335.97
2023-03-26T19:07:13.879Z,96335.16
2023-03-26T19:09:42.139Z,96293.66
2023-03-26T19:12:23.029Z,96357.22
2023-03-26T19:15:09.464Z,96347.63
2023-03-26T19:17:48.840Z,96349.19
2023-03-26T19:20:21.836Z,96344.41
2023-03-26T19:22:49.481Z,96287.97
2023-03-26T19:25:22.593Z,96272.19
2023-03-26T19:27:50.811Z,96297.31
2023-03-26T19:30:28.502Z,96334.28
2023-03-26T19:32:56.666Z,96331.03
2023-03-26T19:35:42.413Z,96331.91
2023-03-26T19:38:24.523Z,96331.13
2023-03-26T19:40:57.012Z,96329.53
2023-03-26T19:43:25.744Z,96312.91
2023-03-26T19:46:00.334Z,96293.84
2023-03-26T19:48:46.905Z,96317.56
2023-03-26T19:51:31.066Z,96323.94
2023-03-26T19:54:00.865Z,96323.19
2023-03-26T19:56:28.773Z,96324.03
2023-03-26T19:58:59.518Z,96216.88
2023-03-26T20:01:29.292Z,96318.53
2023-03-26T20:04:00.039Z,96320.09
2023-03-26T20:06:41.727Z,96261.28
2023-03-26T20:09:11.102Z,96309.66
2023-03-26T20:11:39.922Z,96279.41
2023-03-26T20:14:15.780Z,96213.38
2023-03-26T20:16:45.366Z,96305.47
2023-03-26T20:19:14.199Z,96336.38
2023-03-26T20:21:41.695Z,96330.66
2023-03-26T20:24:16.982Z,96307.53
2023-03-26T20:26:45.185Z,96268.56
2023-03-26T20:29:13.006Z,96331.84
2023-03-26T20:31:43.355Z,96321.22
2023-03-26T20:34:22.628Z,96305.31
2023-03-26T20:36:55.241Z,96241.78
2023-03-26T20:39:23.593Z,96309.19
2023-03-26T20:41:53.717Z,96322.63
2023-03-26T20:44:22.472Z,96326.28
2023-03-26T20:46:50.216Z,96321.56
2023-03-26T20:49:18.109Z,96309.63
2023-03-26T20:51:45.726Z,96329.72
2023-03-26T20:54:21.611Z,96290.28
2023-03-26T20:56:48.973Z,96313.81
2023-03-26T20:59:22.356Z,96319.25
2023-03-26T21:01:50.051Z,96315.34
2023-03-26T21:04:19.203Z,96255.25
2023-03-26T21:06:45.889Z,96313.78
2023-03-26T21:09:17.817Z,96311.38
2023-03-26T21:12:05.491Z,96322.09
2023-03-26T21:14:43.911Z,96316.41
2023-03-26T21:17:19.941Z,96320.41
2023-03-26T21:19:47.261Z,96292.50
2023-03-26T21:22:35.795Z,96313.16
2023-03-26T21:25:33.670Z,96313.13
2023-03-26T21:28:26.180Z,96312.31
2023-03-26T21:30:56.799Z,96313.81
2023-03-26T21:33:23.571Z,96309.72
2023-03-26T21:35:51.890Z,96297.91
2023-03-26T21:38:23.892Z,96253.50
2023-03-26T21:40:58.828Z,96306.78
2023-03-26T21:43:26.150Z,96303.59
2023-03-26T21:45:54.805Z,96286.31
2023-03-26T21:48:22.186Z,96312.78
2023-03-26T21:50:49.526Z,96255.91
2023-03-26T21:53:16.773Z,96313.19
2023-03-26T21:56:15.086Z,96313.66
2023-03-26T21:59:05.099Z,96311.16
2023-03-26T22:01:41.121Z,96322.50
2023-03-26T22:04:18.335Z,96325.59
2023-03-26T22:07:25.428Z,96325.72
2023-03-26T22:09:52.367Z,96317.78
2023-03-26T22:12:19.119Z,96254.03
2023-03-26T22:14:45.768Z,96309.63
2023-03-26T22:17:12.365Z,96298.19
2023-03-26T22:19:38.904Z,96229.91
2023-03-26T22:22:05.449Z,96288.06
2023-03-26T22:24:32.146Z,96296.13
2023-03-26T22:26:58.740Z,96292.50
2023-03-26T22:29:25.352Z,96291.88
2023-03-26T22:31:52.426Z,96285.16
2023-03-26T22:34:19.804Z,96291.75
2023-03-26T22:36:46.758Z,96262.28
2023-03-26T22:39:13.713Z,96264.50
2023-03-26T22:41:40.342Z,96285.66
2023-03-26T22:44:18.935Z,96291.50
2023-03-26T22:46:49.274Z,96280.47
2023-03-26T22:49:16.600Z,96167.31
2023-03-26T22:51:43.657Z,96281.75
2023-03-26T22:54:10.432Z,96284.16
2023-03-26T22:56:37.247Z,96244.97
2023-03-26T22:59:04.021Z,96265.47
2023-03-26T23:01:30.764Z,96212.13
2023-03-26T23:03:57.930Z,96197.94
2023-03-26T23:06:25.133Z,96241.78
2023-03-26T23:08:51.918Z,96246.03
2023-03-26T23:11:20.523Z,96258.88
2023-03-26T23:13:47.890Z,96220.09
2023-03-26T23:16:16.499Z,96256.97
2023-03-26T23:18:43.832Z,96257.66
2023-03-26T23:21:19.724Z,96130.84
2023-03-26T23:23:47.570Z,96256.25
2023-03-26T23:26:14.884Z,96228.63
2023-03-26T23:28:42.126Z,96254.84
2023-03-26T23:31:10.221Z,96253.19
2023-03-26T23:33:39.022Z,96218.75
2023-03-26T23:36:09.308Z,96242.56
2023-03-26T23:38:43.613Z,96242.28
2023-03-26T23:41:15.145Z,96232.97
2023-03-26T23:43:54.451Z,96233.78
2023-03-26T23:46:30.844Z,96221.31
2023-03-26T23:48:59.983Z,96181.81
2023-03-26T23:51:26.879Z,96107.88
2023-03-26T23:53:53.857Z,96166.53
2023-03-26T23:56:21.093Z,96199.16
2023-03-26T23:58:49.063Z,96221.44
